Time;durP1;ratioP1;P1;durP2;ratioP2;P2;SDS_P1;SDS_P2;PMS_P1;PMS_P2;Temp;Humidity;BMP_temperature;BMP_pressure;BME280_temperature;BME280_humidity;BME280_pressure;Samples;Min_cycle;Max_cycle;Signal;HPM_P1;HPM_P2
2022/03/13 00:00:19;;;;;;;16.98;6.72;;;;;;;-2.75;52.17;100778.69;5053791;28;20049;-69
2022/03/13 00:02:52;;;;;;;13.63;6.50;;;;;;;-2.65;51.74;100785.19;5053110;28;20566;-69
2022/03/13 00:05:21;;;;;;;14.80;6.25;;;;;;;-2.71;51.92;100778.13;5052122;28;20524;-70
2022/03/13 00:07:51;;;;;;;;;;;;;;;-2.74;51.96;100779.56;5053628;28;20131;-69
2022/03/13 00:10:27;;;;;;;13.20;6.00;;;;;;;-2.73;51.67;100772.16;5053353;28;19921;-69
2022/03/13 00:12:57;;;;;;;15.57;7.68;;;;;;;-2.71;51.14;100775.63;5051946;28;20076;-70
2022/03/13 00:15:35;;;;;;;18.45;7.00;;;;;;;-2.73;51.10;100772.16;5053315;28;20091;-70
2022/03/13 00:18:06;;;;;;;17.83;7.05;;;;;;;-2.77;51.45;100775.22;5053290;28;20068;-69
2022/03/13 00:20:35;;;;;;;18.30;6.80;;;;;;;-2.89;51.68;100769.38;5053029;28;20049;-69
2022/03/13 00:23:04;;;;;;;14.60;7.07;;;;;;;-2.88;51.59;100768.59;5053915;28;20053;-69
2022/03/13 00:25:34;;;;;;;18.20;7.32;;;;;;;-2.83;52.03;100776.38;5057059;28;20488;-69
2022/03/13 00:28:03;;;;;;;18.63;7.82;;;;;;;-2.85;51.29;100776.31;5056593;28;20037;-70
2022/03/13 00:30:32;;;;;;;16.88;5.95;;;;;;;-2.83;51.45;100767.28;5056690;28;20049;-70
2022/03/13 00:33:01;;;;;;;18.03;7.47;;;;;;;-2.92;51.19;100779.13;5056604;28;20522;-70
2022/03/13 00:35:32;;;;;;;16.10;6.68;;;;;;;-3.02;51.70;100785.88;5056609;28;20284;-69
2022/03/13 00:38:01;;;;;;;16.02;6.53;;;;;;;-3.11;52.34;100791.09;5056518;28;20045;-69
2022/03/13 00:40:30;;;;;;;15.48;7.10;;;;;;;-3.07;52.44;100783.03;5056487;28;20160;-69
2022/03/13 00:43:03;;;;;;;16.75;7.50;;;;;;;-3.11;51.98;100766.13;5056439;28;20053;-70
2022/03/13 00:45:32;;;;;;;16.90;6.78;;;;;;;-3.00;52.24;100780.22;5055430;28;20041;-69
2022/03/13 00:48:01;;;;;;;20.75;7.97;;;;;;;-3.13;52.40;100770.16;5056060;28;20036;-69
2022/03/13 00:50:31;;;;;;;16.90;5.93;;;;;;;-3.06;52.74;100779.81;5056303;28;20048;-69
2022/03/13 00:53:01;;;;;;;14.65;5.82;;;;;;;-3.19;52.89;100782.19;5056290;28;20492;-69
2022/03/13 00:55:29;;;;;;;17.08;7.07;;;;;;;-3.17;52.25;100763.22;5056489;28;20056;-69
2022/03/13 00:57:58;;;;;;;16.77;7.40;;;;;;;-3.19;52.92;100777.19;5056076;28;20048;-70
2022/03/13 01:00:28;;;;;;;20.83;7.68;;;;;;;-3.15;52.56;100774.16;5056380;28;20764;-70
2022/03/13 01:02:58;;;;;;;20.33;7.35;;;;;;;-3.42;52.79;100718.19;5056940;28;20056;-69
2022/03/13 01:05:28;;;;;;;13.95;5.93;;;;;;;-3.15;52.46;100766.69;5055974;28;20055;-70
2022/03/13 01:07:59;;;;;;;15.27;5.70;;;;;;;-3.15;52.97;100764.19;5055925;28;20073;-70
2022/03/13 01:10:28;;;;;;;13.23;5.80;;;;;;;-3.14;52.82;100755.91;5056223;28;20389;-70
2022/03/13 01:12:57;;;;;;;18.23;7.40;;;;;;;-3.18;52.95;100758.09;5056239;28;20488;-70
2022/03/13 01:15:27;;;;;;;10.95;5.22;;;;;;;-3.31;53.22;100753.84;5056094;28;20049;-70
2022/03/13 01:17:56;;;;;;;13.05;5.60;;;;;;;-3.43;53.44;100760.47;5056297;28;20448;-70
2022/03/13 01:20:25;;;;;;;11.30;4.63;;;;;;;-3.41;53.26;100754.84;5055979;28;20045;-69
2022/03/13 01:22:54;;;;;;;12.57;5.93;;;;;;;-3.47;53.75;100753.53;5055767;28;20079;-70
2022/03/13 01:25:27;;;;;;;14.27;5.20;;;;;;;-3.47;53.97;100758.53;5055985;28;20052;-70
2022/03/13 01:27:59;;;;;;;13.98;5.95;;;;;;;-3.36;53.40;100752.69;5054547;28;20041;-69
2022/03/13 01:30:29;;;;;;;17.58;5.28;;;;;;;-3.37;53.61;100750.94;5055806;28;20408;-70
2022/03/13 01:32:59;;;;;;;;;;;;;;;-3.36;53.36;100752.69;5055957;28;20137;-70
2022/03/13 01:35:28;;;;;;;15.07;4.75;;;;;;;-3.64;53.73;100726.50;5054671;28;19921;-70
2022/03/13 01:37:58;;;;;;;11.90;4.70;;;;;;;-3.49;53.93;100750.06;5055388;28;20084;-70
2022/03/13 01:40:28;;;;;;;9.25;4.80;;;;;;;-3.35;54.23;100739.44;5055312;28;20504;-70
2022/03/13 01:42:58;;;;;;;11.90;4.38;;;;;;;-3.42;53.85;100742.25;5055327;28;20128;-70
2022/03/13 01:45:27;;;;;;;14.40;4.22;;;;;;;-3.46;54.32;100745.31;5055347;28;20103;-70
2022/03/13 01:47:56;;;;;;;12.13;4.88;;;;;;;-3.37;53.85;100738.47;5055421;28;20530;-70
2022/03/13 01:50:25;;;;;;;10.23;4.27;;;;;;;-3.41;53.62;100739.03;5055417;28;20033;-70
2022/03/13 01:52:54;;;;;;;11.02;3.95;;;;;;;-3.44;54.30;100733.81;5055411;28;20128;-70
2022/03/13 01:55:23;;;;;;;12.67;4.63;;;;;;;-3.45;53.74;100737.03;5055392;28;20037;-70
2022/03/13 01:57:54;;;;;;;13.10;4.78;;;;;;;-3.51;53.87;100734.13;5054990;28;20047;-70
2022/03/13 02:00:23;;;;;;;9.63;4.63;;;;;;;-3.50;54.31;100738.34;5055270;28;20053;-70
2022/03/13 02:02:52;;;;;;;10.05;3.85;;;;;;;-3.54;53.74;100726.41;5055060;28;20099;-69
2022/03/13 02:05:31;;;;;;;11.02;4.43;;;;;;;-3.66;54.44;100725.53;5054887;28;20041;-70
2022/03/13 02:08:01;;;;;;;12.73;4.03;;;;;;;-3.68;54.12;100707.13;5055082;28;20040;-70
2022/03/13 02:10:31;;;;;;;8.88;4.18;;;;;;;-3.43;54.49;100728.03;5054847;28;20045;-70
2022/03/13 02:13:01;;;;;;;14.63;4.80;;;;;;;-3.43;54.44;100730.53;5054642;28;20073;-70
2022/03/13 02:15:33;;;;;;;10.95;4.38;;;;;;;-3.40;53.83;100729.13;5055014;28;20135;-70
2022/03/13 02:18:06;;;;;;;9.98;3.78;;;;;;;-3.48;53.98;100711.91;5054758;28;20072;-70
2022/03/13 02:20:41;;;;;;;18.50;5.25;;;;;;;-3.42;53.76;100723.19;5054930;28;20467;-70
2022/03/13 02:23:20;;;;;;;11.77;4.65;;;;;;;-3.40;54.09;100725.78;5054481;28;20053;-70
2022/03/13 02:25:51;;;;;;;15.20;5.30;;;;;;;-3.46;54.19;100721.22;5054814;28;20086;-70
2022/03/13 02:28:21;;;;;;;14.00;5.22;;;;;;;-3.44;53.90;100718.84;5054731;28;20041;-70
2022/03/13 02:30:50;;;;;;;8.35;4.57;;;;;;;-3.60;54.29;100708.53;5054653;28;20381;-69
2022/03/13 02:33:21;;;;;;;9.23;4.78;;;;;;;-3.67;53.99;100718.84;5054261;28;20033;-70
2022/03/13 02:35:53;;;;;;;10.18;4.40;;;;;;;-3.69;54.35;100720.31;5054311;28;20048;-70
2022/03/13 02:38:25;;;;;;;9.15;4.13;;;;;;;-3.74;54.55;100716.66;5054615;28;20107;-70
2022/03/13 02:40:55;;;;;;;8.77;4.40;;;;;;;-3.73;54.99;100718.38;5054250;28;20049;-70
2022/03/13 02:43:24;;;;;;;11.57;4.05;;;;;;;-3.68;54.65;100717.97;5054030;28;20083;-70
2022/03/13 02:45:54;;;;;;;;;;;;;;;-3.68;55.18;100717.97;5054499;28;20049;-70
2022/03/13 02:48:23;;;;;;;9.77;4.47;;;;;;;-3.67;54.68;100713.84;5086537;28;19924;-70
2022/03/13 02:50:52;;;;;;;10.30;3.80;;;;;;;-3.73;55.40;100708.41;5053994;28;20041;-70
2022/03/13 02:53:21;;;;;;;11.13;4.57;;;;;;;-3.78;55.41;100714.69;5054116;28;20041;-70
2022/03/13 02:55:52;;;;;;;8.18;3.67;;;;;;;-3.90;55.74;100713.81;5053934;28;20033;-70
2022/03/13 02:58:21;;;;;;;11.80;4.20;;;;;;;-3.96;55.79;100693.44;5053281;28;20040;-70
2022/03/13 03:00:53;;;;;;;11.00;4.32;;;;;;;-3.78;55.63;100709.69;5053865;28;20045;-70
2022/03/13 03:03:23;;;;;;;11.02;3.83;;;;;;;-3.82;55.39;100707.75;5054044;28;20056;-69
2022/03/13 03:05:53;;;;;;;9.52;3.85;;;;;;;-3.71;55.15;100706.88;5054323;28;20083;-70
2022/03/13 03:08:22;;;;;;;10.35;3.95;;;;;;;-3.79;55.27;100700.50;5053997;28;20056;-70
2022/03/13 03:10:52;;;;;;;8.90;4.38;;;;;;;-3.88;55.22;100703.19;5053931;28;20049;-70
2022/03/13 03:13:21;;;;;;;8.77;3.25;;;;;;;-3.94;55.74;100701.88;5053580;28;20041;-69
2022/03/13 03:15:50;;;;;;;8.40;4.40;;;;;;;-3.96;55.75;100703.41;5053882;28;20041;-69
2022/03/13 03:18:20;;;;;;;14.23;4.57;;;;;;;-3.87;55.81;100709.03;5053559;28;20077;-70
2022/03/13 03:20:50;;;;;;;8.98;4.32;;;;;;;-4.05;56.17;100702.75;5052480;28;20045;-69
2022/03/13 03:23:21;;;;;;;7.72;3.40;;;;;;;-4.17;56.55;100703.56;5053258;28;20060;-69
2022/03/13 03:25:50;;;;;;;9.98;4.00;;;;;;;-4.08;56.57;100709.22;5053498;28;20045;-69
2022/03/13 03:28:22;;;;;;;11.27;4.65;;;;;;;-4.12;56.49;100702.28;5053498;28;20056;-69
2022/03/13 03:30:52;;;;;;;8.35;3.55;;;;;;;-3.93;56.03;100703.59;5053690;28;20045;-70
2022/03/13 03:33:21;;;;;;;8.73;3.72;;;;;;;-3.96;56.07;100703.41;5053638;28;20471;-70
2022/03/13 03:35:50;;;;;;;9.80;3.37;;;;;;;-4.00;56.46;100701.41;5053946;28;20072;-70
2022/03/13 03:38:19;;;;;;;11.35;4.15;;;;;;;-3.88;56.24;100697.31;5053388;28;20041;-70
2022/03/13 03:40:48;;;;;;;8.45;3.53;;;;;;;-3.88;56.06;100702.31;5053302;28;20080;-70
2022/03/13 03:43:17;;;;;;;9.50;4.15;;;;;;;-4.33;55.58;100640.06;5053329;28;20059;-70
2022/03/13 03:45:47;;;;;;;9.40;3.50;;;;;;;-3.96;56.27;100695.94;5052363;28;20041;-70
2022/03/13 03:48:16;;;;;;;10.18;4.07;;;;;;;-4.04;56.18;100694.50;5053562;28;20831;-69
2022/03/13 03:50:45;;;;;;;7.93;3.60;;;;;;;-4.20;56.29;100685.88;5053406;28;20041;-69
2022/03/13 03:53:14;;;;;;;10.87;4.57;;;;;;;-4.28;56.79;100688.59;5053212;28;20041;-69
2022/03/13 03:55:43;;;;;;;7.90;3.60;;;;;;;-4.35;56.97;100692.25;5053430;28;20657;-69
2022/03/13 03:58:14;;;;;;;11.75;4.63;;;;;;;-4.24;57.15;100691.41;5056275;28;20049;-70
2022/03/13 04:00:44;;;;;;;10.63;3.55;;;;;;;-4.28;57.17;100684.47;5057219;28;20131;-70
2022/03/13 04:03:15;;;;;;;8.98;3.33;;;;;;;-4.48;56.95;100649.75;5056377;28;20045;-69
2022/03/13 04:05:44;;;;;;;10.65;3.35;;;;;;;-4.35;57.25;100679.81;5057110;28;20141;-70
2022/03/13 04:08:13;;;;;;;6.53;3.57;;;;;;;-4.20;57.07;100682.56;5055916;28;20408;-70
2022/03/13 04:10:42;;;;;;;10.90;4.32;;;;;;;-4.19;56.58;100679.28;5056943;28;20033;-70
2022/03/13 04:13:11;;;;;;;7.85;3.47;;;;;;;-4.15;56.82;100673.78;5055962;28;20072;-70
2022/03/13 04:15:40;;;;;;;8.07;5.05;;;;;;;-4.11;56.54;100674.13;5056998;28;20499;-70
2022/03/13 04:18:10;;;;;;;10.27;4.23;;;;;;;-4.24;56.81;100676.47;5057430;28;20052;-70
2022/03/13 04:20:41;;;;;;;7.13;3.90;;;;;;;-4.26;56.99;100668.00;5056879;28;20270;-70
2022/03/13 04:23:11;;;;;;;8.93;3.20;;;;;;;-4.42;57.06;100649.34;5056796;28;20515;-69
2022/03/13 04:25:40;;;;;;;8.68;3.60;;;;;;;-4.24;56.74;100670.59;5057242;28;20045;-70
2022/03/13 04:28:14;;;;;;;7.60;3.40;;;;;;;-4.26;56.89;100673.00;5057086;28;20072;-69
2022/03/13 04:30:43;;;;;;;7.03;3.13;;;;;;;-4.29;57.09;100667.78;5056626;28;20048;-70
2022/03/13 04:33:13;;;;;;;11.95;3.65;;;;;;;-4.31;56.89;100673.41;5057230;28;20107;-69
2022/03/13 04:35:44;;;;;;;10.05;4.10;;;;;;;-4.49;57.53;100662.97;5056877;28;20080;-69
2022/03/13 04:38:14;;;;;;;10.00;3.80;;;;;;;-4.49;57.83;100682.91;5056643;28;20041;-69
2022/03/13 04:40:43;;;;;;;10.52;3.80;;;;;;;-4.51;57.83;100673.59;5056501;28;20044;-69
2022/03/13 04:43:12;;;;;;;5.80;2.93;;;;;;;-4.51;58.07;100676.06;5056435;28;20044;-69
2022/03/13 04:45:41;;;;;;;6.20;3.22;;;;;;;-4.38;58.12;100672.09;5056783;28;20274;-69
2022/03/13 04:48:10;;;;;;;6.28;3.30;;;;;;;-4.28;57.78;100664.53;5056380;28;20045;-69
2022/03/13 04:50:39;;;;;;;8.18;2.97;;;;;;;-4.22;57.35;100669.97;5056227;28;20045;-69
2022/03/13 04:53:10;;;;;;;6.78;3.60;;;;;;;-4.20;57.18;100668.44;5056254;28;20049;-70
2022/03/13 04:55:39;;;;;;;9.45;2.88;;;;;;;-4.23;56.87;100668.25;5056176;28;20053;-70
2022/03/13 04:58:14;;;;;;;7.65;3.25;;;;;;;-4.18;57.00;100666.09;5056238;28;20500;-70
2022/03/13 05:00:46;;;;;;;10.20;4.05;;;;;;;-4.48;57.25;100624.84;5056128;28;20048;-70
2022/03/13 05:03:15;;;;;;;9.00;3.53;;;;;;;-4.32;57.16;100672.53;5056212;28;20041;-69
2022/03/13 05:05:44;;;;;;;6.10;3.60;;;;;;;-4.34;57.49;100674.06;5055903;28;20057;-69
2022/03/13 05:08:15;;;;;;;10.63;3.63;;;;;;;-4.39;57.49;100665.38;5055533;28;20033;-70
2022/03/13 05:10:47;;;;;;;10.65;3.63;;;;;;;-4.50;57.75;100671.19;5056124;28;20084;-69
2022/03/13 05:13:18;;;;;;;9.10;3.80;;;;;;;-4.45;58.10;100659.94;5055920;28;20048;-70
2022/03/13 05:15:48;;;;;;;6.90;3.58;;;;;;;-4.43;57.88;100650.97;5055899;28;20060;-70
2022/03/13 05:18:17;;;;;;;7.07;3.30;;;;;;;-4.28;57.33;100668.66;5056086;28;20049;-69
2022/03/13 05:20:46;;;;;;;7.80;3.27;;;;;;;-4.28;57.24;100679.50;5055734;28;20045;-70
2022/03/13 05:23:17;;;;;;;10.25;3.95;;;;;;;-4.39;57.41;100639.63;5055611;28;20153;-70
2022/03/13 05:25:46;;;;;;;9.15;3.40;;;;;;;-4.10;57.30;100680.81;5056006;28;20048;-70
2022/03/13 05:28:15;;;;;;;7.60;3.17;;;;;;;-4.12;57.39;100684.84;5055824;28;20041;-69
2022/03/13 05:30:46;;;;;;;8.23;3.42;;;;;;;-4.22;57.75;100684.91;5056001;28;20488;-70
2022/03/13 05:33:15;;;;;;;11.80;4.32;;;;;;;-4.19;57.77;100680.16;5055556;28;20045;-69
2022/03/13 05:35:45;;;;;;;11.50;3.45;;;;;;;-4.04;57.63;100684.53;5055513;28;20045;-69
2022/03/13 05:38:14;;;;;;;10.70;4.27;;;;;;;-3.88;57.26;100687.34;5055399;28;20040;-69
2022/03/13 05:40:44;;;;;;;7.57;3.67;;;;;;;-3.89;57.41;100690.63;5055633;28;20291;-69
2022/03/13 05:43:13;;;;;;;9.75;4.50;;;;;;;-3.86;57.48;100691.69;5056266;28;20049;-69
2022/03/13 05:45:42;;;;;;;8.50;3.97;;;;;;;-3.79;57.29;100693.03;5055313;28;20052;-69
2022/03/13 05:48:17;;;;;;;10.15;3.75;;;;;;;-3.56;56.84;100695.53;5055272;28;20048;-69
2022/03/13 05:50:47;;;;;;;9.88;3.50;;;;;;;-3.47;56.56;100697.03;5055210;28;20048;-69
2022/03/13 05:53:16;;;;;;;8.55;3.60;;;;;;;-3.38;56.10;100694.31;5055463;28;20099;-69
2022/03/13 05:55:46;;;;;;;8.43;3.08;;;;;;;-3.20;56.21;100694.72;5054191;28;20060;-69
2022/03/13 05:58:15;;;;;;;8.05;3.55;;;;;;;-3.08;55.65;100696.44;5055433;28;20094;-69
2022/03/13 06:00:45;;;;;;;10.30;3.42;;;;;;;-3.05;55.86;100694.19;5054983;28;20045;-69
2022/03/13 06:03:13;;;;;;;;;;;;;;;-2.98;56.19;100693.84;5055474;28;20076;-69
2022/03/13 06:05:43;;;;;;;8.50;3.67;;;;;;;-2.78;55.90;100693.53;5055256;28;20368;-69
2022/03/13 06:08:12;;;;;;;8.40;3.70;;;;;;;-2.54;55.04;100695.97;5054884;28;20049;-69
2022/03/13 06:10:41;;;;;;;7.07;3.57;;;;;;;-2.39;54.58;100699.47;5054899;28;20029;-69
2022/03/13 06:13:12;;;;;;;9.10;3.70;;;;;;;-2.62;54.55;100638.00;5054759;28;20131;-69
2022/03/13 06:15:41;;;;;;;8.30;4.10;;;;;;;-2.02;54.46;100698.63;5054730;28;20057;-69
2022/03/13 06:18:10;;;;;;;8.73;3.75;;;;;;;-1.89;53.63;100701.16;5054614;28;20057;-70
2022/03/13 06:20:39;;;;;;;10.95;3.80;;;;;;;-1.64;54.00;100703.59;5054880;28;20099;-69
2022/03/13 06:23:09;;;;;;;8.98;3.60;;;;;;;-1.44;53.44;100689.06;5054349;28;20052;-68
2022/03/13 06:25:38;;;;;;;12.27;4.22;;;;;;;-1.20;52.62;100693.88;5054882;28;20094;-67
2022/03/13 06:28:07;;;;;;;8.13;3.80;;;;;;;-0.80;52.24;100703.03;5054656;28;20047;-67
2022/03/13 06:30:39;;;;;;;10.00;4.63;;;;;;;-0.46;52.38;100696.75;5054355;28;20103;-67
2022/03/13 06:33:08;;;;;;;10.88;4.18;;;;;;;-0.33;51.95;100694.19;5053427;28;20045;-67
2022/03/13 06:35:37;;;;;;;9.00;3.73;;;;;;;-0.09;51.77;100695.59;5055148;28;20381;-67
2022/03/13 06:38:06;;;;;;;16.73;5.63;;;;;;;0.17;51.61;100702.09;5054416;28;20048;-67
2022/03/13 06:40:35;;;;;;;7.73;4.00;;;;;;;0.14;50.61;100706.09;5054149;28;20069;-66
2022/03/13 06:43:04;;;;;;;9.80;4.20;;;;;;;0.11;50.14;100693.34;5054455;28;20073;-66
2022/03/13 06:45:33;;;;;;;9.10;4.27;;;;;;;0.37;50.00;100694.03;5054569;28;20040;-66
2022/03/13 06:48:03;;;;;;;9.60;4.33;;;;;;;0.40;48.77;100695.88;5074447;28;20396;-66
2022/03/13 06:50:32;;;;;;;7.38;3.78;;;;;;;0.77;48.72;100694.56;5073932;28;20277;-66
2022/03/13 06:53:01;;;;;;;10.38;4.20;;;;;;;1.16;47.69;100693.31;5073090;28;20148;-67
2022/03/13 06:55:30;;;;;;;8.75;4.00;;;;;;;0.86;46.66;100697.59;5073890;28;20044;-66
2022/03/13 06:57:59;;;;;;;9.67;4.40;;;;;;;1.07;46.83;100663.56;5074168;28;20036;-66
2022/03/13 07:00:28;;;;;;;7.65;3.78;;;;;;;1.59;45.90;100702.31;5074133;28;20066;-66
2022/03/13 07:02:57;;;;;;;7.57;3.80;;;;;;;1.56;45.39;100698.78;5073540;28;20044;-66
2022/03/13 07:05:27;;;;;;;9.05;4.43;;;;;;;1.82;45.23;100700.97;5074032;28;20032;-65
2022/03/13 07:07:57;;;;;;;10.60;4.18;;;;;;;2.14;44.11;100690.81;5073932;28;20044;-65
2022/03/13 07:10:26;;;;;;;10.02;4.40;;;;;;;2.25;43.83;100694.75;5073987;28;20044;-66
2022/03/13 07:12:58;;;;;;;8.47;4.17;;;;;;;2.15;43.19;100695.06;5073525;28;20052;-66
2022/03/13 07:15:29;;;;;;;10.05;3.97;;;;;;;2.00;43.27;100696.84;5073662;28;20053;-65
2022/03/13 07:17:59;;;;;;;7.10;4.20;;;;;;;1.85;43.13;100701.09;5073619;28;20036;-65
2022/03/13 07:20:30;;;;;;;13.25;4.78;;;;;;;2.01;43.20;100704.47;5073508;28;20063;-65
2022/03/13 07:22:59;;;;;;;10.63;5.07;;;;;;;2.27;42.52;100698.19;5073373;28;20135;-65
2022/03/13 07:25:28;;;;;;;9.93;4.32;;;;;;;2.41;43.41;100697.19;5073851;28;20496;-65
2022/03/13 07:27:58;;;;;;;10.27;5.40;;;;;;;2.51;42.85;100693.47;5073486;28;20048;-65
2022/03/13 07:30:27;;;;;;;12.65;4.60;;;;;;;2.50;41.70;100691.72;5073361;28;20059;-65
2022/03/13 07:32:56;;;;;;;9.30;4.78;;;;;;;2.51;42.29;100689.28;5072648;28;20389;-65
2022/03/13 07:35:25;;;;;;;11.77;4.17;;;;;;;2.64;41.26;100694.09;5068859;28;20495;-66
2022/03/13 07:37:56;;;;;;;10.68;4.35;;;;;;;2.81;41.29;100694.88;5070226;28;20033;-65
2022/03/13 07:40:26;;;;;;;12.18;4.20;;;;;;;3.24;41.38;100692.63;5061081;28;20064;-66
2022/03/13 07:42:56;;;;;;;10.43;4.05;;;;;;;3.62;40.58;100697.72;5069904;28;20048;-65
2022/03/13 07:45:26;;;;;;;11.77;4.57;;;;;;;3.77;40.11;100697.50;5073422;28;20053;-65
2022/03/13 07:47:57;;;;;;;8.15;3.90;;;;;;;3.78;40.12;100702.63;5072142;28;20396;-65
2022/03/13 07:50:26;;;;;;;10.48;4.20;;;;;;;3.99;39.14;100700.13;5072799;28;20052;-66
2022/03/13 07:52:57;;;;;;;8.13;4.20;;;;;;;3.77;38.87;100663.00;5072813;28;20059;-66
2022/03/13 07:55:26;;;;;;;11.20;3.92;;;;;;;3.92;39.26;100688.91;5073364;28;20044;-65
2022/03/13 07:57:55;;;;;;;10.60;5.00;;;;;;;4.07;38.64;100689.56;5073446;28;20068;-65
2022/03/13 08:00:24;;;;;;;10.17;4.47;;;;;;;4.21;37.97;100692.63;5073049;28;20064;-65
2022/03/13 08:02:54;;;;;;;9.48;4.53;;;;;;;4.44;37.75;100680.94;5072937;28;20295;-65
2022/03/13 08:05:24;;;;;;;9.55;4.32;;;;;;;4.84;38.04;100689.25;5073156;28;20095;-65
2022/03/13 08:07:54;;;;;;;7.20;2.97;;;;;;;4.96;36.67;100683.81;5072908;28;20044;-65
2022/03/13 08:10:25;;;;;;;10.55;4.07;;;;;;;5.15;36.64;100688.75;5063471;28;20140;-66
2022/03/13 08:12:54;;;;;;;10.73;4.93;;;;;;;5.10;36.62;100686.03;5054543;28;20448;-65
2022/03/13 08:15:24;;;;;;;8.27;4.13;;;;;;;5.23;36.03;100685.66;5052746;28;20127;-65
2022/03/13 08:17:52;;;;;;;9.05;3.88;;;;;;;5.55;36.30;100683.44;5052928;28;20045;-65
2022/03/13 08:20:21;;;;;;;9.90;4.03;;;;;;;5.87;35.84;100673.66;5052829;28;20052;-65
2022/03/13 08:22:50;;;;;;;6.57;3.67;;;;;;;6.08;35.11;100668.44;5052362;28;20100;-65
2022/03/13 08:25:19;;;;;;;12.45;4.32;;;;;;;6.27;35.34;100660.63;5052857;28;20286;-65
2022/03/13 08:27:50;;;;;;;9.45;4.55;;;;;;;6.79;35.04;100663.06;5052746;28;20043;-64
2022/03/13 08:30:19;;;;;;;8.10;4.07;;;;;;;7.03;34.90;100663.81;5052569;28;20063;-64
2022/03/13 08:32:48;;;;;;;9.65;4.68;;;;;;;7.17;33.93;100664.22;5052652;28;20546;-65
2022/03/13 08:35:17;;;;;;;8.10;3.70;;;;;;;7.22;33.78;100660.13;5052790;28;20049;-64
2022/03/13 08:37:46;;;;;;;9.02;3.92;;;;;;;7.05;33.11;100661.34;5052897;28;20566;-64
2022/03/13 08:40:15;;;;;;;9.57;4.07;;;;;;;6.95;31.88;100652.59;5052467;28;20041;-64
2022/03/13 08:42:44;;;;;;;7.95;4.18;;;;;;;6.89;31.29;100656.59;5052879;28;20041;-64
2022/03/13 08:45:15;;;;;;;7.88;3.80;;;;;;;7.09;31.53;100655.53;5056334;28;20370;-64
2022/03/13 08:47:44;;;;;;;9.65;4.65;;;;;;;7.19;31.00;100653.28;5056316;28;20053;-64
2022/03/13 08:50:13;;;;;;;8.33;4.37;;;;;;;7.58;30.73;100645.03;5055986;28;20072;-65
2022/03/13 08:52:42;;;;;;;7.22;3.83;;;;;;;7.96;30.49;100650.31;5055897;28;20052;-65
2022/03/13 08:55:14;;;;;;;8.05;4.45;;;;;;;7.62;29.29;100637.53;5055945;28;20048;-64
2022/03/13 08:57:44;;;;;;;9.50;3.88;;;;;;;7.96;29.08;100640.13;5055943;28;20095;-64
2022/03/13 09:00:18;;;;;;;8.38;3.95;;;;;;;7.80;28.74;100648.16;5072806;28;20040;-64
2022/03/13 09:02:50;;;;;;;8.70;4.45;;;;;;;7.66;28.61;100644.41;5076180;28;20071;-65
2022/03/13 09:05:19;;;;;;;9.10;3.88;;;;;;;7.68;29.08;100637.69;5076337;28;20082;-64
2022/03/13 09:07:48;;;;;;;7.97;4.63;;;;;;;8.17;28.54;100633.84;5075974;28;20051;-64
2022/03/13 09:10:17;;;;;;;8.02;3.65;;;;;;;8.51;28.93;100636.41;5076233;28;20373;-64
2022/03/13 09:12:46;;;;;;;8.00;3.97;;;;;;;8.72;28.68;100631.78;5076012;28;20044;-64
2022/03/13 09:15:17;;;;;;;;;;;;;;;9.07;28.35;100630.81;5075086;28;20277;-64
2022/03/13 09:17:53;;;;;;;6.93;3.42;;;;;;;8.99;27.56;100629.81;5073898;28;19974;-65
2022/03/13 09:20:23;;;;;;;11.68;4.15;;;;;;;8.40;26.92;100633.59;5069409;28;20033;-65
2022/03/13 09:22:52;;;;;;;6.25;3.50;;;;;;;8.85;27.56;100628.69;5058384;28;20493;-64
2022/03/13 09:25:21;;;;;;;8.10;4.07;;;;;;;8.81;26.55;100633.66;5065434;28;20125;-65
2022/03/13 09:27:52;;;;;;;7.90;4.00;;;;;;;8.92;26.74;100625.44;5075730;28;20511;-64
2022/03/13 09:30:22;;;;;;;9.90;4.20;;;;;;;8.89;26.35;100633.00;5075580;28;20044;-65
2022/03/13 09:32:51;;;;;;;7.35;3.95;;;;;;;8.82;25.83;100643.00;5075617;28;20086;-64
2022/03/13 09:35:20;;;;;;;6.20;2.47;;;;;;;8.93;26.16;100637.31;5060361;28;20128;-64
2022/03/13 09:37:50;;;;;;;8.73;4.28;;;;;;;9.10;25.83;100636.00;5057748;28;20127;-65
2022/03/13 09:40:20;;;;;;;6.82;3.78;;;;;;;9.43;26.21;100626.47;5065786;28;20055;-65
2022/03/13 09:42:49;;;;;;;7.95;4.15;;;;;;;9.45;25.92;100634.97;5055797;28;20388;-64
2022/03/13 09:45:18;;;;;;;5.78;3.05;;;;;;;9.02;26.14;100621.41;5055602;28;20049;-64
2022/03/13 09:47:49;;;;;;;7.57;3.20;;;;;;;9.00;25.43;100618.81;5055274;28;20059;-64
2022/03/13 09:50:19;;;;;;;7.75;4.20;;;;;;;9.58;27.67;100625.88;5055708;28;20437;-64
2022/03/13 09:52:48;;;;;;;7.55;4.28;;;;;;;10.06;26.78;100613.13;5054092;28;20399;-64
2022/03/13 09:55:17;;;;;;;6.80;3.50;;;;;;;10.29;25.42;100609.28;5054449;28;20501;-64
2022/03/13 09:57:48;;;;;;;8.73;4.10;;;;;;;9.99;25.24;100604.53;5055030;28;20052;-64
2022/03/13 10:00:20;;;;;;;7.78;4.35;;;;;;;9.96;25.65;100604.47;5060082;28;20048;-64
2022/03/13 10:02:53;;;;;;;8.48;4.15;;;;;;;10.38;24.99;100604.31;5066802;28;20098;-65
2022/03/13 10:05:24;;;;;;;7.28;3.78;;;;;;;10.36;24.28;100595.78;5065530;28;20041;-65
2022/03/13 10:07:59;;;;;;;8.88;4.00;;;;;;;10.82;24.33;100598.97;5074646;28;20052;-65
2022/03/13 10:10:30;;;;;;;7.68;3.90;;;;;;;11.07;24.39;100590.75;5074902;28;20076;-65
2022/03/13 10:13:02;;;;;;;11.25;4.68;;;;;;;11.62;24.62;100590.53;5072621;28;20484;-65
2022/03/13 10:15:41;;;;;;;10.07;4.17;;;;;;;12.09;24.37;100585.88;5074736;28;20079;-65
2022/03/13 10:18:17;;;;;;;5.78;3.38;;;;;;;12.14;24.41;100580.78;5074620;28;20861;-65
2022/03/13 10:20:47;;;;;;;8.20;4.20;;;;;;;12.06;23.46;100584.13;5074460;28;20048;-65
2022/03/13 10:23:18;;;;;;;;;;;;;;;11.85;22.90;100573.69;5074874;28;20114;-65
2022/03/13 10:25:49;;;;;;;8.73;4.10;;;;;;;11.78;22.63;100577.06;5074987;28;19946;-65
2022/03/13 10:28:21;;;;;;;10.57;4.97;;;;;;;11.57;23.33;100576.81;5074776;28;20056;-65
2022/03/13 10:31:07;;;;;;;8.73;4.07;;;;;;;11.14;22.72;100569.56;5074282;28;20044;-65
2022/03/13 10:34:00;;;;;;;9.18;4.13;;;;;;;11.25;22.23;100568.00;5065754;28;20037;-65
2022/03/13 10:36:35;;;;;;;8.63;4.00;;;;;;;11.23;22.29;100564.53;5066123;28;20057;-65
2022/03/13 10:39:11;;;;;;;7.18;3.75;;;;;;;11.18;23.15;100561.09;5063479;28;20132;-65
2022/03/13 10:41:45;;;;;;;9.10;4.03;;;;;;;11.69;22.47;100561.63;5054129;28;20061;-65
2022/03/13 10:44:17;;;;;;;7.47;4.00;;;;;;;11.68;21.68;100565.06;5054287;28;20041;-65
2022/03/13 10:46:52;;;;;;;7.47;4.00;;;;;;;11.98;21.84;100559.31;5054652;28;20076;-65
2022/03/13 10:49:37;;;;;;;7.63;3.70;;;;;;;12.16;22.14;100556.03;5054136;28;20106;-65
2022/03/13 10:52:25;;;;;;;6.70;4.03;;;;;;;12.12;20.82;100542.34;5053995;28;20049;-64
2022/03/13 10:54:54;;;;;;;8.10;3.60;;;;;;;11.85;21.23;100542.19;5053962;28;20045;-64
2022/03/13 10:57:24;;;;;;;7.68;3.72;;;;;;;12.38;21.22;100542.53;5053744;28;20386;-64
2022/03/13 11:00:04;;;;;;;;;;;;;;;12.01;20.31;100544.00;5054315;28;20513;-64
2022/03/13 11:02:33;;;;;;;7.20;3.70;;;;;;;11.33;20.96;100538.25;5053771;28;19921;-64
2022/03/13 11:05:05;;;;;;;7.47;3.85;;;;;;;11.97;20.90;100545.66;5053784;28;20059;-64
2022/03/13 11:07:34;;;;;;;6.45;3.10;;;;;;;12.07;20.69;100539.78;5052881;28;20055;-64
2022/03/13 11:10:06;;;;;;;5.78;3.10;;;;;;;12.12;20.72;100542.34;5053676;28;20127;-64
2022/03/13 11:12:35;;;;;;;6.50;3.28;;;;;;;12.11;20.63;100525.31;5053651;28;20073;-64
2022/03/13 11:15:04;;;;;;;6.40;3.63;;;;;;;12.04;20.09;100538.91;5053431;28;20041;-64
2022/03/13 11:17:34;;;;;;;6.05;3.42;;;;;;;12.28;20.55;100533.09;5053602;28;20103;-64
2022/03/13 11:20:09;;;;;;;6.03;3.50;;;;;;;12.46;20.22;100522.94;5053495;28;20040;-64
2022/03/13 11:22:38;;;;;;;6.18;3.17;;;;;;;12.37;20.34;100528.88;5053617;28;20045;-64
2022/03/13 11:25:09;;;;;;;7.05;3.72;;;;;;;12.36;20.09;100528.84;5053539;28;20060;-64
2022/03/13 11:27:40;;;;;;;6.05;3.10;;;;;;;12.39;20.00;100521.19;5054275;28;20044;-64
2022/03/13 11:30:14;;;;;;;6.13;2.92;;;;;;;13.01;20.00;100509.50;5053514;28;20059;-64
2022/03/13 11:32:47;;;;;;;7.13;3.08;;;;;;;13.17;20.38;100511.28;5053502;28;20036;-64
2022/03/13 11:35:35;;;;;;;9.98;3.47;;;;;;;13.18;19.90;100510.44;5053402;28;20033;-64
2022/03/13 11:38:17;;;;;;;5.57;2.88;;;;;;;13.09;20.00;100502.72;5053471;28;20056;-64
2022/03/13 11:40:47;;;;;;;5.03;3.00;;;;;;;13.04;19.64;100506.97;5053335;28;20045;-64